Time;durP1;ratioP1;P1;durP2;ratioP2;P2;SDS_P1;SDS_P2;PMS_P1;PMS_P2;Temp;Humidity;BMP_temperature;BMP_pressure;BME280_temperature;BME280_humidity;BME280_pressure;Samples;Min_cycle;Max_cycle;Signal;HPM_P1;HPM_P2
2022/11/07 00:00:38;;;;;;;1.40;0.50;;;;;;;;;;1777071;80;26354;-53
2022/11/07 00:03:05;;;;;;;0.75;0.50;;;;;;;;;;1777352;80;26260;-54
2022/11/07 00:05:32;;;;;;;0.42;0.42;;;;;;;;;;1775627;79;26264;-52
2022/11/07 00:08:00;;;;;;;0.50;0.50;;;;;;;;;;1781931;78;26205;-52
2022/11/07 00:10:27;;;;;;;0.47;0.47;;;;;;;;;;1789882;80;26344;-53
2022/11/07 00:12:54;;;;;;;0.53;0.53;;;;;;;;;;1783458;80;26319;-53
2022/11/07 00:15:21;;;;;;;0.50;0.50;;;;;;;;;;1787715;78;26373;-54
2022/11/07 00:17:49;;;;;;;0.70;0.70;;;;;;;;;;1794646;79;26323;-52
2022/11/07 00:20:16;;;;;;;0.53;0.53;;;;;;;;;;1789546;80;26291;-52
2022/11/07 00:22:43;;;;;;;0.45;0.45;;;;;;;;;;1770913;79;26779;-53
2022/11/07 00:25:11;;;;;;;0.70;0.70;;;;;;;;;;1788394;80;26322;-54
2022/11/07 00:27:38;;;;;;;1.05;0.62;;;;;;;;;;1783562;78;26310;-54
2022/11/07 00:30:06;;;;;;;0.60;0.60;;;;;;;;;;1789859;80;26343;-52
2022/11/07 00:32:33;;;;;;;0.55;0.55;;;;;;;;;;1784549;80;26358;-54
2022/11/07 00:35:00;;;;;;;0.60;0.60;;;;;;;;;;1763727;80;26235;-54
2022/11/07 00:37:28;;;;;;;0.47;0.47;;;;;;;;;;1787793;78;26668;-52
2022/11/07 00:39:55;;;;;;;0.57;0.55;;;;;;;;;;1773093;80;26670;-54
2022/11/07 00:42:22;;;;;;;0.60;0.60;;;;;;;;;;1765946;80;26706;-53
2022/11/07 00:44:49;;;;;;;0.50;0.50;;;;;;;;;;1762833;80;26278;-53
2022/11/07 00:47:17;;;;;;;0.50;0.50;;;;;;;;;;1770667;80;26360;-52
2022/11/07 00:49:44;;;;;;;0.37;0.37;;;;;;;;;;1807902;79;26296;-54
2022/11/07 00:52:11;;;;;;;0.40;0.40;;;;;;;;;;1809180;79;26255;-52
2022/11/07 00:54:38;;;;;;;0.72;0.72;;;;;;;;;;1808868;79;26266;-49
2022/11/07 00:57:06;;;;;;;0.40;0.40;;;;;;;;;;1809029;79;26283;-51
2022/11/07 00:59:33;;;;;;;0.42;0.42;;;;;;;;;;1807108;79;26302;-51
2022/11/07 01:02:00;;;;;;;0.60;0.60;;;;;;;;;;1790490;79;27246;-51
2022/11/07 01:07:13;;;;;;;0.50;0.50;;;;;;;;;;1808483;79;26295;-53
2022/11/07 01:09:40;;;;;;;0.53;0.53;;;;;;;;;;1813401;79;26798;-53
2022/11/07 01:12:07;;;;;;;0.60;0.60;;;;;;;;;;1813658;79;27421;-55
2022/11/07 01:14:35;;;;;;;0.62;0.62;;;;;;;;;;1805333;79;26354;-53
2022/11/07 01:17:02;;;;;;;0.50;0.50;;;;;;;;;;1809138;79;26259;-55
2022/11/07 01:19:30;;;;;;;0.60;0.60;;;;;;;;;;1809213;79;26391;-55
2022/11/07 01:21:57;;;;;;;0.50;0.50;;;;;;;;;;1803839;79;26291;-55
2022/11/07 01:24:24;;;;;;;0.50;0.50;;;;;;;;;;1797877;79;26803;-53
2022/11/07 01:26:51;;;;;;;0.40;0.40;;;;;;;;;;1801234;79;26275;-50
2022/11/07 01:29:19;;;;;;;0.60;0.60;;;;;;;;;;1802473;79;26221;-52
2022/11/07 01:31:47;;;;;;;0.70;0.70;;;;;;;;;;1808224;79;26277;-52
2022/11/07 01:34:16;;;;;;;0.50;0.50;;;;;;;;;;1806886;79;26215;-54
2022/11/07 01:36:44;;;;;;;0.60;0.60;;;;;;;;;;1799047;79;26297;-54
2022/11/07 01:39:11;;;;;;;0.50;0.50;;;;;;;;;;1803993;79;26305;-55
2022/11/07 01:41:39;;;;;;;0.50;0.50;;;;;;;;;;1813426;79;26750;-55
2022/11/07 01:44:08;;;;;;;0.45;0.45;;;;;;;;;;1803301;79;26264;-54
2022/11/07 01:46:36;;;;;;;0.50;0.50;;;;;;;;;;1804639;79;26271;-55
2022/11/07 01:49:11;;;;;;;0.60;0.60;;;;;;;;;;1795699;79;26814;-53
2022/11/07 01:51:40;;;;;;;0.60;0.60;;;;;;;;;;1773315;79;26337;-54
2022/11/07 01:54:08;;;;;;;0.50;0.50;;;;;;;;;;1773715;79;26335;-54
2022/11/07 01:56:37;;;;;;;0.60;0.60;;;;;;;;;;1762869;79;26803;-53
2022/11/07 01:59:04;;;;;;;1.45;0.55;;;;;;;;;;1772518;80;26355;-51
2022/11/07 02:01:32;;;;;;;0.50;0.50;;;;;;;;;;1757912;80;26957;-54
2022/11/07 02:04:00;;;;;;;0.50;0.50;;;;;;;;;;1777009;80;26331;-54
2022/11/07 02:06:37;;;;;;;0.60;0.60;;;;;;;;;;1792271;78;26831;-53
2022/11/07 02:09:04;;;;;;;0.80;0.60;;;;;;;;;;1773441;78;26801;-53
2022/11/07 02:11:32;;;;;;;0.60;0.60;;;;;;;;;;1774201;80;26257;-53
2022/11/07 02:14:00;;;;;;;0.50;0.50;;;;;;;;;;1781250;79;26232;-51
2022/11/07 02:16:27;;;;;;;0.60;0.60;;;;;;;;;;1771134;78;26377;-49
2022/11/07 02:18:55;;;;;;;0.55;0.55;;;;;;;;;;1762913;79;26818;-52
2022/11/07 02:21:30;;;;;;;0.60;0.60;;;;;;;;;;1769650;80;26268;-54
2022/11/07 02:23:59;;;;;;;0.68;0.68;;;;;;;;;;1761960;80;26319;-54
2022/11/07 02:26:27;;;;;;;0.40;0.40;;;;;;;;;;1782911;78;26772;-55
2022/11/07 02:28:55;;;;;;;0.50;0.50;;;;;;;;;;1782056;80;26213;-53
2022/11/07 02:31:23;;;;;;;0.50;0.50;;;;;;;;;;1753459;80;26747;-55
2022/11/07 02:33:50;;;;;;;0.60;0.60;;;;;;;;;;1762948;80;26272;-61
2022/11/07 02:36:19;;;;;;;0.50;0.50;;;;;;;;;;1782126;80;26370;-53
2022/11/07 02:38:47;;;;;;;1.20;0.60;;;;;;;;;;1772428;78;26271;-55
2022/11/07 02:41:22;;;;;;;0.50;0.50;;;;;;;;;;1755006;80;26239;-54
2022/11/07 02:43:51;;;;;;;0.50;0.50;;;;;;;;;;1781684;79;27498;-54
2022/11/07 02:46:19;;;;;;;0.47;0.47;;;;;;;;;;1782016;80;26272;-53
2022/11/07 02:48:48;;;;;;;0.70;0.70;;;;;;;;;;1769735;79;26548;-52
2022/11/07 02:51:15;;;;;;;0.60;0.60;;;;;;;;;;1758388;80;26350;-51
2022/11/07 02:53:42;;;;;;;0.60;0.60;;;;;;;;;;1772637;80;26368;-52
2022/11/07 02:56:10;;;;;;;0.47;0.47;;;;;;;;;;1778402;80;26372;-51
2022/11/07 02:58:37;;;;;;;0.60;0.60;;;;;;;;;;1774509;78;26857;-52
2022/11/07 03:01:08;;;;;;;0.50;0.50;;;;;;;;;;1780565;80;27183;-53
2022/11/07 03:03:46;;;;;;;0.50;0.50;;;;;;;;;;1782175;80;26338;-51
2022/11/07 03:06:15;;;;;;;0.50;0.50;;;;;;;;;;1761147;79;26272;-52
2022/11/07 03:08:42;;;;;;;0.60;0.60;;;;;;;;;;1762898;79;26862;-52
2022/11/07 03:11:10;;;;;;;0.50;0.50;;;;;;;;;;1768034;79;26282;-53
2022/11/07 03:13:37;;;;;;;0.35;0.35;;;;;;;;;;1773215;80;26390;-50
2022/11/07 03:16:09;;;;;;;0.60;0.60;;;;;;;;;;1763555;78;26267;-53
2022/11/07 03:18:37;;;;;;;0.50;0.50;;;;;;;;;;1781732;80;26326;-53
2022/11/07 03:21:04;;;;;;;0.57;0.57;;;;;;;;;;1781848;78;26275;-51
2022/11/07 03:23:33;;;;;;;0.70;0.70;;;;;;;;;;1781784;79;26216;-52
2022/11/07 03:26:01;;;;;;;0.60;0.60;;;;;;;;;;1781911;80;26261;-55
2022/11/07 03:28:28;;;;;;;0.50;0.50;;;;;;;;;;1781397;79;26343;-55
2022/11/07 03:30:57;;;;;;;0.50;0.50;;;;;;;;;;1782059;79;26276;-54
2022/11/07 03:33:24;;;;;;;0.50;0.50;;;;;;;;;;1773854;78;26260;-55
2022/11/07 03:35:51;;;;;;;0.60;0.60;;;;;;;;;;1781823;79;26296;-51
2022/11/07 03:38:18;;;;;;;0.45;0.45;;;;;;;;;;1781753;79;26836;-54
2022/11/07 03:40:46;;;;;;;0.50;0.50;;;;;;;;;;1766662;80;26766;-53
2022/11/07 03:43:13;;;;;;;0.50;0.50;;;;;;;;;;1767835;79;26348;-55
2022/11/07 03:45:41;;;;;;;0.50;0.50;;;;;;;;;;1782909;79;26342;-52
2022/11/07 03:48:08;;;;;;;0.57;0.57;;;;;;;;;;1774888;80;26333;-52
2022/11/07 03:50:36;;;;;;;0.50;0.50;;;;;;;;;;1775455;79;26309;-52
2022/11/07 03:53:03;;;;;;;0.62;0.62;;;;;;;;;;1772357;80;26264;-54
2022/11/07 03:55:30;;;;;;;0.50;0.50;;;;;;;;;;1788471;78;26264;-53
2022/11/07 03:57:57;;;;;;;0.53;0.53;;;;;;;;;;1766036;80;26713;-49
2022/11/07 04:00:25;;;;;;;0.50;0.50;;;;;;;;;;1780769;80;26338;-53
2022/11/07 04:02:52;;;;;;;0.50;0.50;;;;;;;;;;1773605;80;26330;-54
2022/11/07 04:05:20;;;;;;;0.47;0.47;;;;;;;;;;1775920;78;26379;-52
2022/11/07 04:07:47;;;;;;;0.40;0.40;;;;;;;;;;1787409;80;26342;-52
2022/11/07 04:10:15;;;;;;;0.40;0.40;;;;;;;;;;1791690;78;26204;-53
2022/11/07 04:18:14;;;;;;;0.50;0.50;;;;;;;;;;1768713;80;26757;-52
2022/11/07 04:20:42;;;;;;;0.40;0.40;;;;;;;;;;1774394;80;26302;-53
2022/11/07 04:23:09;;;;;;;0.37;0.37;;;;;;;;;;1783727;79;26282;-52
2022/11/07 04:28:21;;;;;;;0.57;0.57;;;;;;;;;;1772815;78;26827;-52
2022/11/07 04:30:49;;;;;;;0.30;0.30;;;;;;;;;;1782618;80;26329;-50
2022/11/07 04:33:16;;;;;;;0.55;0.55;;;;;;;;;;1789992;80;26201;-49
2022/11/07 04:35:43;;;;;;;0.45;0.45;;;;;;;;;;1789341;79;26300;-51
2022/11/07 04:38:10;;;;;;;0.47;0.47;;;;;;;;;;1778012;78;26258;-49
2022/11/07 04:40:38;;;;;;;0.40;0.40;;;;;;;;;;1779031;80;26280;-52
2022/11/07 04:43:08;;;;;;;0.40;0.40;;;;;;;;;;1789960;80;26424;-49
2022/11/07 04:45:35;;;;;;;0.40;0.40;;;;;;;;;;1789633;80;26353;-51
2022/11/07 04:48:03;;;;;;;0.37;0.37;;;;;;;;;;1776093;78;26287;-52
2022/11/07 04:50:30;;;;;;;0.40;0.40;;;;;;;;;;1774502;79;26342;-52
2022/11/07 04:52:57;;;;;;;0.50;0.50;;;;;;;;;;1767970;80;26209;-50
2022/11/07 04:55:26;;;;;;;0.40;0.40;;;;;;;;;;1765650;78;26644;-52
2022/11/07 04:57:53;;;;;;;0.50;0.50;;;;;;;;;;1772251;80;26740;-52
2022/11/07 05:00:21;;;;;;;0.60;0.60;;;;;;;;;;1783841;79;26782;-54
2022/11/07 05:02:48;;;;;;;0.40;0.40;;;;;;;;;;1767536;80;26338;-53
2022/11/07 05:05:16;;;;;;;0.50;0.50;;;;;;;;;;1760216;80;26866;-53
2022/11/07 05:07:44;;;;;;;0.50;0.50;;;;;;;;;;1777719;80;26433;-53
2022/11/07 05:10:19;;;;;;;0.50;0.50;;;;;;;;;;1763615;78;26805;-53
2022/11/07 05:12:47;;;;;;;0.53;0.53;;;;;;;;;;1765686;80;26353;-51
2022/11/07 05:15:15;;;;;;;0.50;0.50;;;;;;;;;;1765118;80;26881;-54
2022/11/07 05:17:42;;;;;;;0.40;0.40;;;;;;;;;;1772333;80;27137;-55
2022/11/07 05:20:20;;;;;;;0.50;0.50;;;;;;;;;;1768035;80;26312;-55
2022/11/07 05:25:33;;;;;;;0.40;0.40;;;;;;;;;;1769125;79;26409;-56
2022/11/07 05:28:00;;;;;;;0.50;0.50;;;;;;;;;;1761745;80;26272;-53
2022/11/07 05:30:27;;;;;;;0.40;0.40;;;;;;;;;;1759726;80;26283;-58
2022/11/07 05:32:54;;;;;;;0.50;0.50;;;;;;;;;;1766458;78;26271;-58
2022/11/07 05:35:22;;;;;;;0.42;0.40;;;;;;;;;;1769845;80;26342;-58
2022/11/07 05:37:49;;;;;;;0.40;0.40;;;;;;;;;;1767742;79;27554;-58
2022/11/07 05:40:16;;;;;;;1.95;0.60;;;;;;;;;;1763702;80;27593;-58
2022/11/07 05:42:44;;;;;;;0.50;0.50;;;;;;;;;;1763194;80;26259;-58
2022/11/07 05:45:11;;;;;;;0.40;0.40;;;;;;;;;;1768324;79;26260;-57
2022/11/07 05:47:38;;;;;;;0.80;0.60;;;;;;;;;;1765967;80;26551;-56
2022/11/07 05:50:06;;;;;;;1.60;0.50;;;;;;;;;;1763221;80;26292;-56
2022/11/07 05:52:33;;;;;;;1.27;0.50;;;;;;;;;;1758519;80;26320;-57
2022/11/07 05:55:01;;;;;;;1.55;0.53;;;;;;;;;;1767953;78;26346;-57
2022/11/07 05:57:30;;;;;;;0.60;0.53;;;;;;;;;;1754181;80;26331;-56
2022/11/07 05:59:57;;;;;;;1.30;0.55;;;;;;;;;;1758722;80;26370;-58
2022/11/07 06:02:25;;;;;;;0.88;0.50;;;;;;;;;;1753439;79;26282;-58
2022/11/07 06:04:52;;;;;;;0.50;0.50;;;;;;;;;;1751793;79;26284;-58
2022/11/07 06:07:19;;;;;;;0.45;0.45;;;;;;;;;;1771518;79;26867;-58
2022/11/07 06:09:47;;;;;;;0.62;0.62;;;;;;;;;;1778893;78;26331;-58
2022/11/07 06:12:14;;;;;;;0.47;0.47;;;;;;;;;;1777387;80;26636;-58
2022/11/07 06:14:41;;;;;;;1.90;0.60;;;;;;;;;;1775538;80;26342;-57
2022/11/07 06:17:08;;;;;;;0.60;0.60;;;;;;;;;;1766072;79;26338;-57
2022/11/07 06:19:36;;;;;;;2.22;0.70;;;;;;;;;;1780307;78;26275;-57
2022/11/07 06:22:03;;;;;;;0.60;0.60;;;;;;;;;;1763059;80;26272;-56
2022/11/07 06:24:30;;;;;;;3.87;0.62;;;;;;;;;;1778340;79;26300;-56
2022/11/07 06:26:57;;;;;;;1.07;0.60;;;;;;;;;;1772518;78;26257;-55
2022/11/07 06:29:25;;;;;;;6.78;0.85;;;;;;;;;;1771226;80;26268;-55
2022/11/07 06:31:52;;;;;;;1.35;0.50;;;;;;;;;;1781134;80;26315;-54
2022/11/07 06:34:19;;;;;;;0.70;0.70;;;;;;;;;;1775744;80;26382;-55
2022/11/07 06:36:47;;;;;;;0.65;0.65;;;;;;;;;;1777817;80;26914;-55
2022/11/07 06:39:14;;;;;;;0.70;0.70;;;;;;;;;;1772908;79;26540;-56
2022/11/07 06:41:41;;;;;;;0.70;0.70;;;;;;;;;;1766999;80;26281;-55
2022/11/07 06:44:08;;;;;;;0.68;0.68;;;;;;;;;;1773769;79;26268;-56
2022/11/07 06:46:36;;;;;;;0.90;0.90;;;;;;;;;;1759362;80;26337;-56
2022/11/07 06:49:03;;;;;;;0.70;0.70;;;;;;;;;;1767636;78;26327;-54
2022/11/07 06:51:31;;;;;;;0.70;0.70;;;;;;;;;;1774056;78;26387;-53
2022/11/07 06:53:58;;;;;;;0.80;0.80;;;;;;;;;;1788645;79;26380;-54
2022/11/07 06:56:25;;;;;;;0.70;0.70;;;;;;;;;;1794375;79;26311;-55
2022/11/07 06:58:52;;;;;;;0.80;0.80;;;;;;;;;;1788829;79;26290;-56
2022/11/07 07:01:20;;;;;;;0.88;0.88;;;;;;;;;;1792532;79;26396;-53
2022/11/07 07:03:47;;;;;;;1.37;0.80;;;;;;;;;;1786628;79;26695;-54
2022/11/07 07:06:15;;;;;;;2.55;0.80;;;;;;;;;;1783169;79;26298;-54
2022/11/07 07:08:44;;;;;;;1.32;1.10;;;;;;;;;;1810109;79;26402;-57
2022/11/07 07:11:12;;;;;;;1.15;1.05;;;;;;;;;;1794977;78;26393;-54
2022/11/07 07:13:40;;;;;;;2.40;1.00;;;;;;;;;;1796943;79;26336;-55
2022/11/07 07:16:07;;;;;;;4.67;1.10;;;;;;;;;;1799959;79;26211;-56
2022/11/07 07:18:35;;;;;;;0.90;0.90;;;;;;;;;;1793978;79;26272;-55
2022/11/07 07:21:06;;;;;;;1.95;1.00;;;;;;;;;;1794359;79;26766;-54
2022/11/07 07:23:34;;;;;;;0.90;0.90;;;;;;;;;;1792727;79;26298;-53
2022/11/07 07:26:02;;;;;;;1.00;1.00;;;;;;;;;;1801547;77;26256;-51
2022/11/07 07:28:29;;;;;;;0.90;0.90;;;;;;;;;;1813777;79;26291;-53
2022/11/07 07:31:10;;;;;;;0.95;0.95;;;;;;;;;;1805391;79;26679;-51
2022/11/07 07:33:38;;;;;;;1.67;1.10;;;;;;;;;;1809745;79;26280;-53
2022/11/07 07:36:06;;;;;;;1.90;0.93;;;;;;;;;;1800426;79;26259;-47
2022/11/07 07:38:33;;;;;;;1.00;1.00;;;;;;;;;;1797569;79;26264;-56
2022/11/07 07:41:01;;;;;;;1.70;1.00;;;;;;;;;;1813556;79;26771;-56
2022/11/07 07:43:28;;;;;;;0.93;0.93;;;;;;;;;;1788063;79;26320;-59
2022/11/07 07:46:00;;;;;;;1.10;1.10;;;;;;;;;;1813489;79;26279;-58
2022/11/07 07:48:27;;;;;;;1.00;1.00;;;;;;;;;;1802002;79;26301;-59
2022/11/07 07:50:55;;;;;;;1.10;1.10;;;;;;;;;;1801898;79;26306;-59
2022/11/07 07:53:22;;;;;;;1.07;1.07;;;;;;;;;;1787319;79;26320;-59
2022/11/07 07:55:50;;;;;;;0.90;0.90;;;;;;;;;;1804202;79;26267;-59
2022/11/07 07:58:17;;;;;;;1.00;1.00;;;;;;;;;;1812465;79;26276;-58
2022/11/07 08:00:44;;;;;;;1.12;1.02;;;;;;;;;;1800570;79;28376;-61
2022/11/07 08:03:12;;;;;;;1.15;1.00;;;;;;;;;;1792627;79;28448;-58
2022/11/07 08:05:39;;;;;;;1.00;1.00;;;;;;;;;;1794797;79;26414;-58
2022/11/07 08:08:08;;;;;;;2.98;0.93;;;;;;;;;;1799719;79;26585;-60
2022/11/07 08:10:35;;;;;;;1.55;1.07;;;;;;;;;;1794582;79;26782;-54
2022/11/07 08:13:02;;;;;;;0.80;0.80;;;;;;;;;;1790970;79;26227;-55
2022/11/07 08:15:30;;;;;;;1.10;1.10;;;;;;;;;;1794636;79;38728;-57
2022/11/07 08:17:58;;;;;;;0.85;0.85;;;;;;;;;;1805031;79;26271;-58
2022/11/07 08:20:26;;;;;;;1.35;0.90;;;;;;;;;;1808934;79;26232;-59
2022/11/07 08:22:58;;;;;;;5.40;1.00;;;;;;;;;;1799093;79;27437;-57
2022/11/07 08:25:25;;;;;;;1.15;1.10;;;;;;;;;;1790322;79;26837;-55
2022/11/07 08:27:53;;;;;;;1.00;0.88;;;;;;;;;;1803763;79;26900;-54
2022/11/07 08:30:20;;;;;;;0.90;0.90;;;;;;;;;;1791615;79;26282;-61
2022/11/07 08:32:47;;;;;;;0.90;0.90;;;;;;;;;;1808417;79;26275;-60
2022/11/07 08:35:15;;;;;;;1.10;1.00;;;;;;;;;;1791144;79;26277;-54
2022/11/07 08:37:42;;;;;;;0.98;0.98;;;;;;;;;;1796732;79;26318;-51
2022/11/07 08:40:10;;;;;;;0.90;0.90;;;;;;;;;;1792081;79;26283;-51
2022/11/07 08:42:37;;;;;;;1.00;1.00;;;;;;;;;;1793127;79;26748;-50
2022/11/07 08:45:05;;;;;;;0.90;0.90;;;;;;;;;;1796978;79;26679;-49
2022/11/07 08:47:32;;;;;;;1.30;1.02;;;;;;;;;;1786588;79;26447;-51
2022/11/07 08:49:59;;;;;;;0.93;0.93;;;;;;;;;;1793278;79;26727;-51
2022/11/07 08:52:27;;;;;;;0.90;0.90;;;;;;;;;;1785273;79;26839;-54
2022/11/07 08:54:54;;;;;;;1.10;1.10;;;;;;;;;;1767300;78;26870;-54
2022/11/07 08:57:21;;;;;;;1.40;1.10;;;;;;;;;;1772460;79;26300;-53
2022/11/07 08:59:48;;;;;;;0.90;0.90;;;;;;;;;;1776457;79;26337;-47
2022/11/07 09:02:16;;;;;;;1.07;1.07;;;;;;;;;;1773143;79;26412;-52
2022/11/07 09:04:43;;;;;;;1.12;1.12;;;;;;;;;;1774880;79;26384;-52
2022/11/07 09:07:10;;;;;;;0.88;0.88;;;;;;;;;;1770795;79;26283;-53
2022/11/07 09:09:37;;;;;;;0.98;0.98;;;;;;;;;;1773677;79;26229;-54
2022/11/07 09:12:05;;;;;;;1.12;1.12;;;;;;;;;;1773604;78;26285;-54
2022/11/07 09:14:32;;;;;;;1.35;1.10;;;;;;;;;;1768075;79;28473;-50
2022/11/07 09:16:59;;;;;;;0.90;0.90;;;;;;;;;;1771424;79;26338;-56
2022/11/07 09:19:27;;;;;;;1.00;1.00;;;;;;;;;;1776754;79;26257;-58
2022/11/07 09:21:55;;;;;;;1.00;1.00;;;;;;;;;;1772064;79;27380;-59
2022/11/07 09:24:23;;;;;;;0.85;0.85;;;;;;;;;;1778993;78;26346;-59
2022/11/07 09:26:50;;;;;;;1.00;1.00;;;;;;;;;;1778444;79;26742;-59
2022/11/07 09:29:17;;;;;;;1.00;1.00;;;;;;;;;;1774681;79;26261;-56
2022/11/07 09:31:44;;;;;;;0.98;0.98;;;;;;;;;;1777326;79;26338;-57
2022/11/07 09:34:12;;;;;;;1.10;1.10;;;;;;;;;;1773601;79;26282;-58
2022/11/07 09:36:39;;;;;;;1.00;1.00;;;;;;;;;;1776306;79;26296;-59
2022/11/07 09:39:06;;;;;;;1.00;1.00;;;;;;;;;;1773110;79;26280;-60
2022/11/07 09:41:41;;;;;;;1.10;1.10;;;;;;;;;;1769114;79;26367;-58
2022/11/07 09:44:16;;;;;;;1.00;1.00;;;;;;;;;;1774099;78;26378;-59
2022/11/07 09:47:01;;;;;;;1.17;1.17;;;;;;;;;;1772877;79;26369;-59
2022/11/07 09:49:30;;;;;;;1.00;1.00;;;;;;;;;;1774951;79;26295;-61
2022/11/07 09:51:59;;;;;;;1.20;1.20;;;;;;;;;;1771735;79;26814;-61
2022/11/07 09:54:28;;;;;;;1.00;1.00;;;;;;;;;;1770922;79;26432;-58
2022/11/07 09:56:57;;;;;;;1.20;1.20;;;;;;;;;;1772053;78;26847;-58
2022/11/07 09:59:26;;;;;;;1.00;1.00;;;;;;;;;;1777100;79;27534;-58
2022/11/07 10:01:54;;;;;;;1.00;1.00;;;;;;;;;;1779131;79;26806;-54
2022/11/07 10:04:22;;;;;;;1.00;1.00;;;;;;;;;;1775141;79;26294;-58
2022/11/07 10:06:51;;;;;;;0.90;0.90;;;;;;;;;;1785048;78;26372;-50
2022/11/07 10:09:20;;;;;;;1.00;1.00;;;;;;;;;;1779410;79;26371;-51
2022/11/07 10:11:58;;;;;;;1.10;1.10;;;;;;;;;;1777187;79;26379;-49
2022/11/07 10:14:39;;;;;;;1.10;1.10;;;;;;;;;;1775527;79;26807;-60
2022/11/07 10:17:14;;;;;;;1.02;1.02;;;;;;;;;;1774481;78;26292;-60
2022/11/07 10:19:43;;;;;;;1.17;1.17;;;;;;;;;;1777811;79;26269;-55
2022/11/07 10:22:14;;;;;;;0.98;0.98;;;;;;;;;;1774039;79;26794;-54
2022/11/07 10:24:46;;;;;;;1.02;1.02;;;;;;;;;;1782565;79;26308;-52
2022/11/07 10:27:13;;;;;;;1.30;1.20;;;;;;;;;;1749751;79;26280;-53
2022/11/07 10:30:00;;;;;;;1.02;1.02;;;;;;;;;;1777246;79;26286;-59
2022/11/07 10:32:37;;;;;;;1.10;1.10;;;;;;;;;;1861283;76;26770;-58
2022/11/07 10:35:12;;;;;;;1.20;1.20;;;;;;;;;;1861186;76;26322;-58
2022/11/07 10:37:39;;;;;;;1.00;1.00;;;;;;;;;;1860563;76;26257;-58
2022/11/07 10:40:18;;;;;;;1.00;1.00;;;;;;;;;;1859406;76;26262;-53
2022/11/07 10:42:46;;;;;;;1.30;1.30;;;;;;;;;;1864838;76;26275;-57
2022/11/07 10:45:14;;;;;;;1.20;1.20;;;;;;;;;;1861171;76;26748;-57
2022/11/07 10:47:42;;;;;;;1.00;1.00;;;;;;;;;;1855060;76;26266;-54
2022/11/07 10:50:20;;;;;;;1.20;1.20;;;;;;;;;;1836775;76;26813;-50
2022/11/07 10:52:54;;;;;;;1.10;1.10;;;;;;;;;;1839270;76;26348;-52
2022/11/07 10:55:22;;;;;;;1.30;1.30;;;;;;;;;;1847916;76;26742;-59
2022/11/07 10:57:52;;;;;;;0.93;0.93;;;;;;;;;;1859078;76;26310;-58
2022/11/07 11:00:23;;;;;;;1.10;1.10;;;;;;;;;;1860440;76;21677;-59
2022/11/07 11:02:52;;;;;;;1.10;1.10;;;;;;;;;;1862979;76;26640;-60
2022/11/07 11:05:21;;;;;;;1.20;1.20;;;;;;;;;;1860067;76;26278;-57
2022/11/07 11:07:49;;;;;;;1.12;1.12;;;;;;;;;;1853314;76;26321;-57
2022/11/07 11:10:20;;;;;;;1.25;1.25;;;;;;;;;;1859925;76;26318;-55
2022/11/07 11:12:48;;;;;;;1.10;1.10;;;;;;;;;;1856456;76;26359;-59
2022/11/07 11:15:18;;;;;;;1.10;1.10;;;;;;;;;;1858789;76;26333;-61
2022/11/07 11:17:45;;;;;;;1.95;1.20;;;;;;;;;;1855547;76;27195;-59
2022/11/07 11:20:20;;;;;;;1.20;1.20;;;;;;;;;;1854446;76;26310;-59
2022/11/07 11:22:47;;;;;;;1.20;1.20;;;;;;;;;;1853876;76;26278;-59
2022/11/07 11:25:16;;;;;;;1.20;1.20;;;;;;;;;;1861977;76;26964;-61
2022/11/07 11:27:44;;;;;;;1.10;1.10;;;;;;;;;;1861113;76;26763;-57
2022/11/07 11:30:13;;;;;;;1.00;1.00;;;;;;;;;;1860710;76;26293;-56
2022/11/07 11:32:58;;;;;;;1.00;1.00;;;;;;;;;;1864714;76;26324;-53
2022/11/07 11:35:36;;;;;;;1.10;1.10;;;;;;;;;;1864859;76;26269;-53
2022/11/07 11:38:17;;;;;;;1.10;1.10;;;;;;;;;;1859799;76;26319;-57
2022/11/07 11:40:46;;;;;;;1.15;1.15;;;;;;;;;;1860137;76;26281;-54
2022/11/07 11:43:15;;;;;;;1.20;1.20;;;;;;;;;;1856854;76;26318;-55
2022/11/07 11:45:44;;;;;;;1.07;1.07;;;;;;;;;;1862727;76;26321;-51
2022/11/07 11:48:12;;;;;;;1.22;1.22;;;;;;;;;;1865843;76;26194;-52
2022/11/07 11:50:41;;;;;;;1.25;1.20;;;;;;;;;;1860057;76;26245;-48
2022/11/07 11:53:10;;;;;;;1.20;1.20;;;;;;;;;;1866256;76;26293;-52
2022/11/07 11:55:39;;;;;;;1.10;1.10;;;;;;;;;;1864921;76;26242;-50
2022/11/07 11:58:08;;;;;;;1.05;1.05;;;;;;;;;;1864580;76;26344;-57
2022/11/07 12:00:37;;;;;;;1.10;1.10;;;;;;;;;;1858659;76;26703;-51
2022/11/07 12:03:15;;;;;;;1.07;1.07;;;;;;;;;;1858831;76;27556;-54
2022/11/07 12:05:49;;;;;;;1.00;1.00;;;;;;;;;;1856957;76;26472;-55
2022/11/07 12:08:19;;;;;;;1.20;1.20;;;;;;;;;;1863813;76;26306;-57
2022/11/07 12:10:51;;;;;;;1.20;1.20;;;;;;;;;;1862586;76;26333;-53
2022/11/07 12:13:32;;;;;;;1.10;1.10;;;;;;;;;;1862007;76;26253;-59
2022/11/07 12:16:12;;;;;;;1.02;1.02;;;;;;;;;;1861605;76;27203;-53
2022/11/07 12:18:47;;;;;;;1.00;1.00;;;;;;;;;;1856667;76;26417;-58
2022/11/07 12:21:16;;;;;;;1.17;1.17;;;;;;;;;;1860150;76;26277;-50
2022/11/07 12:24:01;;;;;;;1.10;1.10;;;;;;;;;;1863904;76;26325;-55
2022/11/07 12:26:36;;;;;;;1.10;1.10;;;;;;;;;;1856370;76;26289;-54
2022/11/07 12:29:07;;;;;;;1.12;1.12;;;;;;;;;;1860308;76;26282;-54
2022/11/07 12:31:36;;;;;;;1.00;1.00;;;;;;;;;;1858665;76;26323;-57
2022/11/07 12:34:20;;;;;;;1.00;1.00;;;;;;;;;;1820464;78;26257;-52
2022/11/07 12:36:52;;;;;;;1.00;1.00;;;;;;;;;;1818478;78;27154;-54
2022/11/07 12:39:30;;;;;;;1.10;1.10;;;;;;;;;;1824826;77;26384;-55
2022/11/07 12:41:58;;;;;;;1.00;1.00;;;;;;;;;;1825758;77;26267;-55
2022/11/07 12:44:39;;;;;;;1.07;1.07;;;;;;;;;;1826912;77;26298;-57
2022/11/07 12:47:10;;;;;;;1.00;1.00;;;;;;;;;;1817729;77;26311;-53
2022/11/07 12:49:42;;;;;;;1.10;1.10;;;;;;;;;;1814557;77;26296;-53
2022/11/07 12:52:27;;;;;;;1.00;1.00;;;;;;;;;;1816369;77;26251;-60
2022/11/07 12:54:56;;;;;;;1.10;1.10;;;;;;;;;;1811558;77;29374;-61
2022/11/07 12:57:25;;;;;;;1.10;1.10;;;;;;;;;;1815831;77;26732;-61
2022/11/07 12:59:56;;;;;;;1.13;1.13;;;;;;;;;;1811200;77;28787;-58
2022/11/07 13:02:31;;;;;;;0.90;0.90;;;;;;;;;;1811009;77;26335;-59
2022/11/07 13:05:09;;;;;;;1.02;1.02;;;;;;;;;;1810878;77;26332;-59
2022/11/07 13:07:49;;;;;;;1.10;1.10;;;;;;;;;;1752844;80;26362;-59
2022/11/07 13:10:21;;;;;;;0.98;0.98;;;;;;;;;;1811472;77;26999;-59
2022/11/07 13:13:01;;;;;;;0.95;0.95;;;;;;;;;;1811803;77;26311;-59
2022/11/07 13:15:30;;;;;;;1.00;1.00;;;;;;;;;;1811954;77;26315;-59
2022/11/07 13:17:57;;;;;;;1.12;1.02;;;;;;;;;;1816850;77;26374;-59
2022/11/07 13:20:26;;;;;;;0.90;0.90;;;;;;;;;;1817390;77;26448;-59
2022/11/07 13:22:54;;;;;;;1.00;1.00;;;;;;;;;;1819895;77;26287;-59
2022/11/07 13:25:23;;;;;;;1.00;1.00;;;;;;;;;;1812170;77;26987;-59
2022/11/07 13:27:54;;;;;;;1.10;1.10;;;;;;;;;;1819883;77;27233;-58
2022/11/07 13:30:23;;;;;;;1.20;1.20;;;;;;;;;;1815162;77;26319;-59
2022/11/07 13:32:51;;;;;;;1.12;1.00;;;;;;;;;;1819609;77;26299;-60
2022/11/07 13:35:25;;;;;;;0.90;0.90;;;;;;;;;;1817656;77;26365;-58
2022/11/07 13:38:00;;;;;;;1.15;1.10;;;;;;;;;;1821650;77;26414;-58
2022/11/07 13:40:29;;;;;;;1.50;0.90;;;;;;;;;;1817490;77;26260;-57
2022/11/07 13:42:58;;;;;;;1.02;1.02;;;;;;;;;;1817258;77;26333;-63
2022/11/07 13:45:27;;;;;;;0.93;0.93;;;;;;;;;;1818900;77;26353;-66
2022/11/07 13:47:56;;;;;;;1.17;1.17;;;;;;;;;;1807751;77;26271;-63
2022/11/07 13:50:25;;;;;;;1.00;1.00;;;;;;;;;;1816714;77;26285;-55
2022/11/07 13:52:53;;;;;;;1.95;1.02;;;;;;;;;;1818640;77;26328;-61
2022/11/07 13:55:22;;;;;;;1.10;1.10;;;;;;;;;;1813280;77;26882;-63
2022/11/07 13:57:51;;;;;;;1.00;1.00;;;;;;;;;;1819342;77;26353;-64
2022/11/07 14:00:19;;;;;;;1.57;1.10;;;;;;;;;;1816033;77;26349;-61
2022/11/07 14:02:51;;;;;;;1.00;1.00;;;;;;;;;;1812694;77;27493;-63
2022/11/07 14:05:20;;;;;;;1.10;1.10;;;;;;;;;;1813691;77;26316;-60
2022/11/07 14:07:49;;;;;;;1.10;1.10;;;;;;;;;;1818489;77;26764;-61
2022/11/07 14:10:18;;;;;;;1.10;1.10;;;;;;;;;;1811065;77;26389;-59
2022/11/07 14:12:46;;;;;;;1.02;1.02;;;;;;;;;;1816880;77;26295;-60
2022/11/07 14:15:15;;;;;;;1.05;1.05;;;;;;;;;;1812630;77;26344;-58
2022/11/07 14:17:43;;;;;;;1.22;1.20;;;;;;;;;;1808822;77;26264;-61
2022/11/07 14:20:16;;;;;;;1.10;1.10;;;;;;;;;;1816110;77;26338;-62
2022/11/07 14:22:42;;;;;;;1.10;1.10;;;;;;;;;;1814964;77;26432;-61
2022/11/07 14:25:19;;;;;;;1.15;1.15;;;;;;;;;;1815223;77;26271;-59
2022/11/07 14:27:47;;;;;;;1.00;1.00;;;;;;;;;;1819784;77;26311;-59
2022/11/07 14:30:16;;;;;;;1.25;1.15;;;;;;;;;;1807304;77;28804;-57
2022/11/07 14:32:51;;;;;;;1.10;1.10;;;;;;;;;;1820927;76;26753;-55
2022/11/07 14:35:19;;;;;;;1.00;1.00;;;;;;;;;;1818810;77;26368;-56
2022/11/07 14:37:47;;;;;;;0.95;0.95;;;;;;;;;;1813634;77;26365;-58
2022/11/07 14:40:14;;;;;;;1.00;1.00;;;;;;;;;;1811875;77;26669;-56
2022/11/07 14:42:42;;;;;;;1.17;1.10;;;;;;;;;;1812256;77;26338;-56
2022/11/07 14:45:11;;;;;;;0.95;0.95;;;;;;;;;;1808648;77;26307;-56
2022/11/07 14:47:39;;;;;;;0.98;0.98;;;;;;;;;;1802492;77;26330;-55
2022/11/07 14:50:07;;;;;;;1.00;1.00;;;;;;;;;;1803362;77;26271;-57
2022/11/07 14:52:35;;;;;;;1.30;1.00;;;;;;;;;;1814320;77;26597;-56
2022/11/07 14:55:04;;;;;;;1.82;1.20;;;;;;;;;;1818032;77;26674;-54
2022/11/07 14:57:33;;;;;;;1.72;1.62;;;;;;;;;;1808889;77;26400;-56
2022/11/07 15:00:00;;;;;;;1.00;1.00;;;;;;;;;;1811280;77;26263;-56
2022/11/07 15:02:29;;;;;;;1.05;0.90;;;;;;;;;;1807851;77;26369;-53
2022/11/07 15:04:57;;;;;;;1.00;1.00;;;;;;;;;;1809970;77;26299;-60
2022/11/07 15:07:31;;;;;;;3.40;1.00;;;;;;;;;;1814273;77;26774;-59